Terminal Aerodrome Forecast
Issued by NWS

Home | Current Version | Previous Version | Text Only | Print | Product List | Glossary On
Versions: 1 2 3 4 5 6 7 8 9 10 11 12 13 14
000
FTUS45 KABQ 260100 AAA
TAFLVS
TAF AMD
KLVS 260140Z 2602/2624 20008KT P6SM BKN100
     FM261300 VRB05KT P6SM BKN050
     FM261800 06010KT P6SM VCSH SCT025 BKN040=

USA.gov is the U.S. government's official web portal to all federal, state and local government web resources and services.